Time;durP1;ratioP1;P1;durP2;ratioP2;P2;SDS_P1;SDS_P2;PMS_P1;PMS_P2;Temp;Humidity;BMP_temperature;BMP_pressure;BME280_temperature;BME280_humidity;BME280_pressure;Samples;Min_cycle;Max_cycle;Signal;HPM_P1;HPM_P2
2021/03/04 00:00:36;;;;;;;2.60;1.50;;;22.60;45.70;;;;;;5002211;28;20065;-62
2021/03/04 00:03:04;;;;;;;2.40;1.30;;;22.50;45.70;;;;;;5003993;28;20081;-62
2021/03/04 00:05:29;;;;;;;2.33;1.30;;;22.50;45.70;;;;;;5004869;28;20084;-63
2021/03/04 00:07:56;;;;;;;1.88;1.30;;;22.50;45.70;;;;;;5004070;28;20434;-61
2021/03/04 00:10:22;;;;;;;2.25;1.30;;;22.50;45.70;;;;;;5005985;28;20117;-62
2021/03/04 00:12:49;;;;;;;2.78;1.30;;;22.50;45.70;;;;;;5006898;28;20384;-62
2021/03/04 00:15:18;;;;;;;2.65;1.60;;;22.50;45.70;;;;;;5000304;28;20061;-62
2021/03/04 00:17:45;;;;;;;3.28;1.60;;;22.50;45.70;;;;;;5007849;28;20018;-63
2021/03/04 00:20:17;;;;;;;1.73;1.25;;;22.50;45.70;;;;;;5005736;28;20049;-62
2021/03/04 00:22:43;;;;;;;2.13;1.20;;;22.40;45.70;;;;;;4997469;28;20456;-63
2021/03/04 00:25:10;;;;;;;2.92;1.40;;;22.40;45.70;;;;;;5006237;28;20036;-62
2021/03/04 00:27:36;;;;;;;2.58;1.38;;;22.50;45.70;;;;;;5009013;28;20502;-62
2021/03/04 00:30:02;;;;;;;2.17;1.45;;;22.40;45.70;;;;;;5008504;28;20034;-62
2021/03/04 00:32:28;;;;;;;3.22;1.67;;;22.40;45.70;;;;;;5005162;28;20049;-62
2021/03/04 00:34:54;;;;;;;2.83;1.40;;;22.40;45.70;;;;;;5008239;28;20061;-61
2021/03/04 00:37:19;;;;;;;2.45;1.48;;;22.40;45.70;;;;;;5010812;28;20037;-62
2021/03/04 00:39:45;;;;;;;3.08;1.30;;;22.40;45.70;;;;;;5000206;28;20038;-63
2021/03/04 00:42:11;;;;;;;2.65;1.50;;;22.40;45.70;;;;;;5009230;28;20912;-62
2021/03/04 00:44:37;;;;;;;2.22;1.30;;;22.40;45.70;;;;;;5010089;28;20038;-62
2021/03/04 00:47:03;;;;;;;1.95;1.33;;;22.40;45.70;;;;;;5004110;28;20101;-62
2021/03/04 00:49:29;;;;;;;2.60;1.45;;;22.40;45.70;;;;;;5009708;28;20113;-62
2021/03/04 00:51:54;;;;;;;2.53;1.40;;;22.30;45.70;;;;;;5008542;28;20109;-63
2021/03/04 00:54:20;;;;;;;2.55;1.30;;;22.30;45.70;;;;;;5007374;28;20594;-61
2021/03/04 00:56:46;;;;;;;2.03;1.20;;;22.30;45.70;;;;;;5008615;28;20070;-61
2021/03/04 00:59:11;;;;;;;2.25;1.33;;;22.30;45.70;;;;;;5007485;28;20041;-62
2021/03/04 01:01:37;;;;;;;2.17;1.30;;;22.30;45.70;;;;;;5003548;28;20026;-62
2021/03/04 01:04:03;;;;;;;2.38;1.50;;;22.30;45.70;;;;;;5009906;28;20453;-63
2021/03/04 01:06:28;;;;;;;2.50;1.30;;;22.30;45.70;;;;;;5010434;28;20152;-62
2021/03/04 01:08:54;;;;;;;2.75;1.50;;;22.30;45.70;;;;;;5007358;28;20029;-62
2021/03/04 01:11:19;;;;;;;3.03;1.50;;;22.30;45.80;;;;;;5008727;28;20528;-63
2021/03/04 01:13:45;;;;;;;2.78;1.30;;;22.30;45.70;;;;;;5005442;28;20022;-62
2021/03/04 01:16:11;;;;;;;2.22;1.38;;;22.30;45.70;;;;;;5010812;28;20037;-61
2021/03/04 01:18:37;;;;;;;2.00;1.30;;;22.30;45.70;;;;;;5009304;28;20330;-63
2021/03/04 01:21:04;;;;;;;1.80;1.20;;;22.30;45.80;;;;;;5009703;28;20045;-61
2021/03/04 01:23:30;;;;;;;3.25;1.30;;;22.20;46.20;;;;;;5006455;28;20156;-62
2021/03/04 01:25:55;;;;;;;2.38;1.42;;;22.20;45.70;;;;;;5006373;28;20026;-63
2021/03/04 01:28:21;;;;;;;2.55;1.35;;;22.20;45.70;;;;;;5008256;28;20026;-63
2021/03/04 01:30:47;;;;;;;2.65;1.50;;;22.20;45.70;;;;;;5005714;28;20117;-62
2021/03/04 01:33:13;;;;;;;2.00;1.20;;;22.20;45.80;;;;;;5008259;28;20156;-62
2021/03/04 01:35:39;;;;;;;2.22;1.20;;;22.20;45.70;;;;;;5009786;28;20125;-62
2021/03/04 01:38:04;;;;;;;2.60;1.50;;;22.20;45.70;;;;;;5006070;28;20026;-63
2021/03/04 01:40:30;;;;;;;2.63;1.67;;;22.20;45.70;;;;;;5006590;28;20077;-62
2021/03/04 01:42:55;;;;;;;2.50;1.40;;;22.20;45.80;;;;;;5007772;28;20034;-62
2021/03/04 01:45:21;;;;;;;1.90;1.25;;;22.20;45.80;;;;;;5007214;28;20404;-63
2021/03/04 01:47:53;;;;;;;1.88;1.30;;;22.20;45.80;;;;;;5008249;28;20111;-62
2021/03/04 01:50:20;;;;;;;2.20;1.30;;;22.20;45.80;;;;;;5008133;28;20052;-63
2021/03/04 01:52:46;;;;;;;1.73;1.33;;;22.20;45.80;;;;;;5009397;28;20034;-64
2021/03/04 01:55:15;;;;;;;2.45;1.50;;;22.10;45.70;;;;;;5003212;28;20049;-64
2021/03/04 01:57:42;;;;;;;2.20;1.30;;;22.10;45.70;;;;;;5007382;28;20036;-63
2021/03/04 02:00:09;;;;;;;1.50;1.13;;;22.20;45.80;;;;;;5006208;28;20052;-63
2021/03/04 02:02:36;;;;;;;2.22;1.30;;;22.10;45.70;;;;;;5007794;28;20154;-63
2021/03/04 02:05:04;;;;;;;1.88;1.20;;;22.10;45.70;;;;;;5008515;28;20049;-61
2021/03/04 02:07:29;;;;;;;2.33;1.35;;;22.10;45.70;;;;;;5008135;28;20022;-63
2021/03/04 02:10:14;;;;;;;2.53;1.40;;;22.10;45.80;;;;;;5008008;28;20117;-62
2021/03/04 02:12:42;;;;;;;2.40;1.50;;;22.10;45.70;;;;;;5004740;28;20034;-64
2021/03/04 02:15:14;;;;;;;2.30;1.40;;;22.10;45.70;;;;;;5008065;28;20356;-63
2021/03/04 02:17:46;;;;;;;2.58;1.40;;;22.10;45.70;;;;;;5008489;28;20061;-62
2021/03/04 02:20:34;;;;;;;2.25;1.40;;;22.10;46.30;;;;;;5001645;28;20053;-62
2021/03/04 02:23:13;;;;;;;1.83;1.25;;;22.10;45.80;;;;;;4978326;28;20030;-61
2021/03/04 02:25:58;;;;;;;2.47;1.65;;;22.10;45.80;;;;;;5015825;28;20026;-61
2021/03/04 02:28:26;;;;;;;1.85;1.30;;;22.10;45.80;;;;;;5007464;28;20473;-64
2021/03/04 02:30:54;;;;;;;1.98;1.20;;;22.00;45.70;;;;;;5008829;28;20107;-61
2021/03/04 02:33:23;;;;;;;1.50;1.13;;;22.00;45.70;;;;;;5007077;28;20155;-65
2021/03/04 02:35:49;;;;;;;;;;;22.00;45.80;;;;;;4995984;28;20393;-63
2021/03/04 02:38:18;;;;;;;2.28;1.30;;;22.00;45.80;;;;;;5006688;28;20337;-62
2021/03/04 02:40:47;;;;;;;1.98;1.30;;;22.00;45.80;;;;;;5006367;28;20041;-62
2021/03/04 02:43:14;;;;;;;1.47;1.07;;;22.00;45.80;;;;;;5006538;28;20045;-62
2021/03/04 02:45:41;;;;;;;2.33;1.30;;;22.00;45.80;;;;;;5000595;28;20034;-62
2021/03/04 02:48:11;;;;;;;2.15;1.38;;;22.00;45.80;;;;;;4999918;28;20045;-63
2021/03/04 02:50:38;;;;;;;2.83;1.30;;;22.00;45.80;;;;;;5005715;28;20025;-65
2021/03/04 02:53:04;;;;;;;2.00;1.30;;;22.00;45.80;;;;;;5003441;28;20052;-63
2021/03/04 02:55:31;;;;;;;1.85;1.27;;;22.00;45.80;;;;;;5008344;28;20057;-65
2021/03/04 02:57:57;;;;;;;2.30;1.42;;;22.00;45.80;;;;;;5006470;28;20025;-64
2021/03/04 03:00:26;;;;;;;2.15;1.20;;;22.00;45.80;;;;;;5005065;28;20087;-61
2021/03/04 03:02:55;;;;;;;3.65;1.38;;;21.90;45.80;;;;;;5007115;28;20049;-62
2021/03/04 03:05:23;;;;;;;;;;;22.00;45.80;;;;;;4996136;28;20045;-63
2021/03/04 03:07:49;;;;;;;2.17;1.30;;;22.00;45.80;;;;;;5007441;28;19909;-61
2021/03/04 03:10:17;;;;;;;1.85;1.20;;;21.90;45.80;;;;;;5006950;28;20105;-61
2021/03/04 03:12:45;;;;;;;2.13;1.30;;;21.90;45.80;;;;;;5020517;28;20096;-62
2021/03/04 03:15:14;;;;;;;2.35;1.42;;;21.90;45.80;;;;;;5004310;28;20376;-62
2021/03/04 03:17:40;;;;;;;1.92;1.20;;;21.90;45.80;;;;;;5008998;28;20180;-62
2021/03/04 03:20:09;;;;;;;2.03;1.38;;;21.90;45.80;;;;;;5005078;28;20137;-62
2021/03/04 03:22:36;;;;;;;1.60;1.10;;;21.90;45.80;;;;;;4999241;28;20026;-61
2021/03/04 03:25:05;;;;;;;1.80;1.20;;;21.90;45.80;;;;;;5002875;28;20040;-61
2021/03/04 03:27:31;;;;;;;2.00;1.35;;;21.90;45.80;;;;;;5006645;28;20527;-64
2021/03/04 03:29:56;;;;;;;1.85;1.30;;;21.90;45.80;;;;;;5001372;28;20033;-64
2021/03/04 03:32:24;;;;;;;2.03;1.20;;;21.90;45.80;;;;;;5008547;28;20476;-64
2021/03/04 03:34:50;;;;;;;2.15;1.33;;;21.80;45.80;;;;;;5001942;28;20045;-62
2021/03/04 03:37:18;;;;;;;2.67;1.40;;;21.90;45.90;;;;;;5006697;28;20036;-62
2021/03/04 03:39:44;;;;;;;2.53;1.30;;;21.90;45.80;;;;;;4996238;28;20034;-62
2021/03/04 03:42:10;;;;;;;2.17;1.30;;;21.80;45.80;;;;;;5006881;28;20040;-64
2021/03/04 03:44:37;;;;;;;1.70;1.20;;;21.90;45.90;;;;;;5004591;28;20030;-63
2021/03/04 03:47:05;;;;;;;1.67;1.20;;;21.90;45.80;;;;;;5008008;28;20488;-63
2021/03/04 03:49:32;;;;;;;1.95;1.20;;;21.90;45.80;;;;;;5006861;28;20022;-61
2021/03/04 03:52:01;;;;;;;2.22;1.40;;;21.90;45.90;;;;;;5007781;28;20081;-61
2021/03/04 03:54:28;;;;;;;1.73;1.27;;;21.80;45.80;;;;;;4989059;28;20044;-63
2021/03/04 03:56:56;;;;;;;2.30;1.48;;;21.80;45.80;;;;;;4989977;28;20129;-62
2021/03/04 03:59:24;;;;;;;1.60;1.20;;;21.80;45.90;;;;;;4991275;28;20045;-63
2021/03/04 04:01:50;;;;;;;2.30;1.40;;;21.80;45.80;;;;;;5001517;28;20042;-62
2021/03/04 04:04:16;;;;;;;1.75;1.10;;;21.80;45.80;;;;;;5005306;28;20026;-61
2021/03/04 04:06:43;;;;;;;2.40;1.45;;;21.80;45.80;;;;;;5012180;28;20026;-63
2021/03/04 04:09:09;;;;;;;2.10;1.33;;;21.80;45.80;;;;;;5010740;28;20058;-63
2021/03/04 04:11:36;;;;;;;1.67;1.27;;;21.80;45.90;;;;;;4996978;28;20474;-62
2021/03/04 04:14:02;;;;;;;2.22;1.25;;;21.80;45.90;;;;;;5006247;28;20654;-62
2021/03/04 04:16:28;;;;;;;2.00;1.30;;;21.80;45.80;;;;;;5010963;28;20057;-62
2021/03/04 04:18:56;;;;;;;2.17;1.38;;;21.80;45.90;;;;;;5011025;28;20061;-64
2021/03/04 04:21:22;;;;;;;1.92;1.20;;;21.80;45.90;;;;;;5010139;28;20034;-62
2021/03/04 04:23:49;;;;;;;2.10;1.30;;;21.80;45.90;;;;;;5010718;28;20451;-63
2021/03/04 04:26:16;;;;;;;1.92;1.10;;;21.80;45.90;;;;;;5011086;28;20034;-62
2021/03/04 04:28:41;;;;;;;2.00;1.30;;;21.80;45.90;;;;;;5010533;28;20028;-64
2021/03/04 04:31:07;;;;;;;2.00;1.30;;;21.70;45.80;;;;;;5008189;28;20033;-62
2021/03/04 04:33:33;;;;;;;1.60;1.20;;;21.70;45.80;;;;;;5009936;28;20395;-63
2021/03/04 04:35:59;;;;;;;2.00;1.20;;;21.70;45.80;;;;;;5008752;28;20029;-64
2021/03/04 04:38:25;;;;;;;1.92;1.20;;;21.70;45.80;;;;;;5007488;28;20026;-62
2021/03/04 04:40:51;;;;;;;1.65;1.08;;;21.70;45.80;;;;;;5008319;28;20464;-61
2021/03/04 04:43:17;;;;;;;1.85;1.27;;;21.70;45.80;;;;;;5000652;28;20036;-62
2021/03/04 04:45:43;;;;;;;2.20;1.33;;;21.70;45.80;;;;;;5006238;28;20022;-62
2021/03/04 04:48:09;;;;;;;1.38;1.05;;;21.70;45.80;;;;;;5006544;28;20030;-63
2021/03/04 04:50:34;;;;;;;2.00;1.20;;;21.70;45.80;;;;;;5010406;28;20045;-61
2021/03/04 04:53:00;;;;;;;2.08;1.30;;;21.70;45.80;;;;;;5009393;28;20366;-62
2021/03/04 04:55:26;;;;;;;1.70;1.23;;;21.70;45.80;;;;;;5009321;28;20129;-64
2021/03/04 04:57:51;;;;;;;2.65;1.17;;;21.70;45.80;;;;;;5004818;28;20084;-62
2021/03/04 05:00:18;;;;;;;1.95;1.30;;;21.70;45.80;;;;;;5003415;28;20497;-62
2021/03/04 05:02:43;;;;;;;1.77;1.20;;;21.70;45.80;;;;;;5010252;28;20037;-64
2021/03/04 05:05:09;;;;;;;2.13;1.30;;;21.70;45.80;;;;;;5006053;28;20025;-62
2021/03/04 05:07:36;;;;;;;2.08;1.40;;;21.70;45.80;;;;;;5001361;28;20030;-63
2021/03/04 05:10:04;;;;;;;1.90;1.20;;;21.70;45.80;;;;;;5024263;28;20026;-62
2021/03/04 05:12:29;;;;;;;2.42;1.23;;;21.70;45.80;;;;;;5008277;28;20041;-63
2021/03/04 05:14:55;;;;;;;2.05;1.33;;;21.70;45.80;;;;;;5005346;28;20445;-63
2021/03/04 05:17:21;;;;;;;2.47;1.42;;;21.70;45.80;;;;;;5007223;28;20410;-61
2021/03/04 05:19:47;;;;;;;2.33;1.35;;;21.70;46.30;;;;;;5009646;28;20468;-63
2021/03/04 05:22:13;;;;;;;2.03;1.20;;;21.70;45.80;;;;;;5009226;28;20034;-62
2021/03/04 05:24:38;;;;;;;1.95;1.30;;;21.70;45.80;;;;;;5009631;28;20037;-62
2021/03/04 05:27:04;;;;;;;2.05;1.30;;;21.70;45.80;;;;;;5007265;28;20057;-63
2021/03/04 05:29:30;;;;;;;1.80;1.20;;;21.70;45.80;;;;;;5007344;28;20038;-62
2021/03/04 05:31:56;;;;;;;1.88;1.20;;;21.70;45.90;;;;;;5006710;28;20117;-63
2021/03/04 05:34:21;;;;;;;3.40;1.30;;;21.70;45.90;;;;;;5008383;28;20516;-64
2021/03/04 05:36:47;;;;;;;1.52;1.02;;;21.70;45.80;;;;;;5007466;28;20046;-62
2021/03/04 05:39:12;;;;;;;1.77;1.23;;;21.70;45.90;;;;;;5001950;28;20091;-63
2021/03/04 05:41:38;;;;;;;2.17;1.23;;;21.70;45.90;;;;;;5008378;28;20529;-61
2021/03/04 05:44:07;;;;;;;2.45;1.40;;;21.70;45.90;;;;;;5006685;28;20461;-62
2021/03/04 05:46:34;;;;;;;1.95;1.23;;;21.70;45.90;;;;;;5007081;28;20048;-62
2021/03/04 05:49:01;;;;;;;1.65;1.17;;;21.60;45.90;;;;;;5014366;28;20030;-64
2021/03/04 05:51:31;;;;;;;1.75;1.13;;;21.70;45.90;;;;;;5010173;28;20137;-62
2021/03/04 05:53:58;;;;;;;2.40;1.30;;;21.70;45.90;;;;;;5008227;28;20034;-62
2021/03/04 05:56:25;;;;;;;1.30;1.13;;;21.70;45.90;;;;;;5008835;28;20587;-62
2021/03/04 05:58:52;;;;;;;2.65;1.30;;;21.70;45.90;;;;;;5007242;28;20152;-62
2021/03/04 06:01:19;;;;;;;2.90;1.50;;;21.60;45.90;;;;;;5004523;28;20061;-62
2021/03/04 06:03:45;;;;;;;2.63;1.40;;;21.60;45.90;;;;;;5008638;28;20022;-61
2021/03/04 06:06:12;;;;;;;2.00;1.30;;;21.60;45.90;;;;;;5002447;28;20127;-63
2021/03/04 06:08:38;;;;;;;2.00;1.30;;;21.60;45.90;;;;;;5006011;28;20109;-62
2021/03/04 06:11:05;;;;;;;1.75;1.17;;;21.60;45.90;;;;;;5000544;28;20565;-63
2021/03/04 06:13:31;;;;;;;2.10;1.40;;;21.60;45.90;;;;;;5008028;28;20460;-61
2021/03/04 06:15:58;;;;;;;1.92;1.17;;;21.60;45.90;;;;;;5008150;28;20041;-62
2021/03/04 06:18:46;;;;;;;2.00;1.20;;;21.60;45.90;;;;;;5007133;28;20025;-62
2021/03/04 06:21:22;;;;;;;2.00;1.25;;;21.60;45.90;;;;;;5004710;28;20053;-61
2021/03/04 06:23:49;;;;;;;1.85;1.15;;;21.60;46.00;;;;;;5003208;28;20057;-61
2021/03/04 06:26:37;;;;;;;1.95;1.23;;;21.60;46.00;;;;;;5005110;28;20038;-61
2021/03/04 06:29:15;;;;;;;2.85;1.35;;;21.60;46.00;;;;;;5005077;28;20022;-66
2021/03/04 06:31:41;;;;;;;3.80;1.80;;;21.60;46.00;;;;;;5017910;28;20100;-68
2021/03/04 06:34:20;;;;;;;2.35;1.38;;;21.70;47.10;;;;;;5007800;28;20030;-66
2021/03/04 06:36:55;;;;;;;3.10;2.00;;;21.70;47.20;;;;;;5008144;28;20120;-67
2021/03/04 06:39:21;;;;;;;3.08;1.30;;;21.90;46.30;;;;;;5008126;28;20061;-67
2021/03/04 06:42:00;;;;;;;2.05;1.27;;;21.90;46.10;;;;;;5006071;28;20051;-67
2021/03/04 06:44:25;;;;;;;2.33;1.27;;;21.90;46.10;;;;;;5009142;28;20648;-67
2021/03/04 06:46:51;;;;;;;2.40;1.40;;;21.90;46.10;;;;;;5009941;28;20030;-64
2021/03/04 06:49:20;;;;;;;2.83;1.20;;;21.90;46.10;;;;;;5007619;28;20026;-69
2021/03/04 06:51:46;;;;;;;2.72;1.35;;;21.90;46.10;;;;;;5007253;28;20104;-67
2021/03/04 06:54:24;;;;;;;3.22;1.63;;;22.00;46.10;;;;;;5008628;28;20037;-66
2021/03/04 06:56:51;;;;;;;2.25;1.35;;;22.00;46.70;;;;;;5008622;28;20030;-67
2021/03/04 06:59:17;;;;;;;2.33;1.38;;;22.10;46.00;;;;;;5006869;28;20022;-66
2021/03/04 07:01:42;;;;;;;2.17;1.35;;;22.10;45.90;;;;;;5009669;28;20026;-65
2021/03/04 07:04:17;;;;;;;1.90;1.30;;;22.10;45.90;;;;;;5008125;28;20026;-67
2021/03/04 07:06:46;;;;;;;2.10;1.30;;;22.10;45.90;;;;;;5002976;28;20032;-67
2021/03/04 07:09:12;;;;;;;;;;;22.20;45.90;;;;;;4997742;28;20417;-68
2021/03/04 07:11:38;;;;;;;2.08;1.20;;;22.20;45.80;;;;;;5001139;28;20475;-67
2021/03/04 07:14:06;;;;;;;2.53;1.40;;;22.20;45.80;;;;;;5007363;28;20029;-66
2021/03/04 07:16:45;;;;;;;2.05;1.40;;;22.30;46.00;;;;;;5006286;28;20480;-66
2021/03/04 07:19:13;;;;;;;2.15;1.35;;;22.30;45.60;;;;;;4991290;28;20054;-66
2021/03/04 07:21:41;;;;;;;2.38;1.40;;;22.30;45.60;;;;;;4998403;28;20073;-66
2021/03/04 07:24:08;;;;;;;1.80;1.30;;;22.30;45.50;;;;;;4990520;28;20160;-67
2021/03/04 07:26:36;;;;;;;2.20;1.38;;;22.40;46.10;;;;;;5009042;28;20057;-69
2021/03/04 07:29:04;;;;;;;2.37;1.47;;;22.30;45.40;;;;;;5007077;28;20030;-69
2021/03/04 07:31:30;;;;;;;2.45;1.45;;;22.40;45.50;;;;;;5007771;28;20096;-68
2021/03/04 07:33:57;;;;;;;2.03;1.27;;;22.40;45.60;;;;;;5005856;28;20034;-67
2021/03/04 07:36:24;;;;;;;2.53;1.30;;;22.40;45.80;;;;;;5005234;28;20076;-68
2021/03/04 07:39:01;;;;;;;1.60;1.20;;;22.50;45.60;;;;;;5004977;28;20704;-66
2021/03/04 07:41:44;;;;;;;1.90;1.33;;;22.50;45.60;;;;;;5004507;28;20080;-68
2021/03/04 07:44:22;;;;;;;2.63;1.23;;;22.50;45.50;;;;;;5004956;28;20118;-66
2021/03/04 07:47:01;;;;;;;1.80;1.20;;;22.60;45.40;;;;;;5007234;28;20111;-67
2021/03/04 07:49:33;;;;;;;2.83;1.20;;;22.60;45.40;;;;;;5007629;28;20066;-67
2021/03/04 07:52:10;;;;;;;2.05;1.30;;;22.60;45.30;;;;;;5007531;28;20430;-65
2021/03/04 07:54:38;;;;;;;1.70;1.20;;;22.60;45.20;;;;;;5007654;28;20468;-68
2021/03/04 07:57:11;;;;;;;2.08;1.20;;;22.60;45.40;;;;;;5008173;28;20168;-69
2021/03/04 07:59:49;;;;;;;1.80;1.20;;;22.70;45.30;;;;;;4994729;28;20029;-64
2021/03/04 08:02:26;;;;;;;2.97;1.20;;;22.70;45.10;;;;;;5002811;28;20404;-66
2021/03/04 08:05:12;;;;;;;1.70;1.27;;;22.80;45.10;;;;;;4998571;28;20169;-65
2021/03/04 08:07:48;;;;;;;1.90;1.20;;;22.80;45.10;;;;;;5000983;28;20129;-67
2021/03/04 08:10:18;;;;;;;2.05;1.20;;;22.80;45.00;;;;;;5006425;28;20026;-69
2021/03/04 08:12:46;;;;;;;2.08;1.27;;;22.80;45.00;;;;;;5006207;28;20029;-70
2021/03/04 08:15:13;;;;;;;2.00;1.30;;;22.80;45.00;;;;;;5008131;28;20029;-67
2021/03/04 08:17:39;;;;;;;2.35;1.40;;;22.80;45.10;;;;;;5006138;28;20380;-68
2021/03/04 08:20:16;;;;;;;2.40;1.30;;;22.90;45.10;;;;;;5005688;28;20156;-66
2021/03/04 08:22:59;;;;;;;1.90;1.30;;;22.90;44.90;;;;;;4987175;28;20076;-67
2021/03/04 08:25:30;;;;;;;1.15;0.90;;;22.90;44.90;;;;;;5006377;28;20030;-69
2021/03/04 08:27:58;;;;;;;1.58;1.10;;;22.90;45.00;;;;;;5008027;28;20076;-72
2021/03/04 08:30:28;;;;;;;1.90;1.40;;;22.90;44.90;;;;;;5003338;28;20035;-66
2021/03/04 08:32:56;;;;;;;1.70;1.15;;;23.00;45.00;;;;;;5004922;28;20022;-68
2021/03/04 08:35:22;;;;;;;1.80;1.20;;;23.00;44.90;;;;;;5005255;28;20034;-67
2021/03/04 08:38:02;;;;;;;2.30;1.30;;;23.00;44.90;;;;;;5009055;28;20364;-67
2021/03/04 08:40:36;;;;;;;2.00;1.25;;;23.00;45.10;;;;;;5007064;28;20041;-67
2021/03/04 08:43:27;;;;;;;2.35;1.52;;;23.10;44.90;;;;;;4989694;28;20046;-68
2021/03/04 08:45:57;;;;;;;2.30;1.30;;;23.10;44.70;;;;;;4989731;28;20050;-68
2021/03/04 08:48:24;;;;;;;1.83;1.10;;;23.10;44.70;;;;;;4996483;28;20037;-69
2021/03/04 08:50:52;;;;;;;1.52;1.17;;;23.10;44.60;;;;;;5011192;28;20090;-69
2021/03/04 08:53:25;;;;;;;1.90;1.10;;;23.20;44.70;;;;;;5002245;28;20041;-68
2021/03/04 08:55:53;;;;;;;2.00;1.05;;;23.20;44.70;;;;;;4999198;28;20140;-67
2021/03/04 08:58:20;;;;;;;1.90;1.33;;;23.20;44.70;;;;;;5001083;28;20168;-68
2021/03/04 09:00:55;;;;;;;1.95;1.20;;;23.20;44.60;;;;;;5008611;28;20197;-68
2021/03/04 09:03:22;;;;;;;2.40;1.20;;;23.20;44.70;;;;;;5008621;28;20087;-69
2021/03/04 09:05:48;;;;;;;2.03;1.08;;;23.30;44.70;;;;;;5023210;28;20049;-67
2021/03/04 09:08:15;;;;;;;2.08;1.20;;;23.30;44.60;;;;;;5015934;28;20026;-70
2021/03/04 09:10:46;;;;;;;1.35;1.02;;;23.30;44.50;;;;;;5005464;28;20058;-64
2021/03/04 09:13:19;;;;;;;2.33;1.08;;;23.30;44.40;;;;;;5006632;28;20022;-69
2021/03/04 09:15:56;;;;;;;1.83;1.15;;;23.30;44.50;;;;;;5009037;28;20473;-67
2021/03/04 09:18:25;;;;;;;2.03;1.10;;;23.30;44.50;;;;;;5021332;28;20029;-66
2021/03/04 09:20:54;;;;;;;2.20;1.25;;;23.30;44.50;;;;;;5006701;28;20068;-69
2021/03/04 09:23:21;;;;;;;1.80;1.25;;;23.40;44.50;;;;;;5003839;28;20026;-68
2021/03/04 09:25:52;;;;;;;1.70;1.20;;;23.30;44.40;;;;;;5007737;28;20120;-65
2021/03/04 09:28:19;;;;;;;1.90;1.25;;;23.40;44.60;;;;;;5008712;28;20030;-69
2021/03/04 09:30:46;;;;;;;2.00;1.10;;;23.40;44.40;;;;;;5009410;28;20190;-67
2021/03/04 09:33:19;;;;;;;1.70;1.10;;;23.50;44.50;;;;;;5011278;28;20026;-67
2021/03/04 09:35:59;;;;;;;2.05;1.10;;;23.40;44.40;;;;;;5009841;28;20029;-66
2021/03/04 09:38:28;;;;;;;1.20;0.90;;;23.50;44.50;;;;;;5006768;28;20022;-67
2021/03/04 09:40:55;;;;;;;2.88;1.20;;;23.50;44.40;;;;;;5008833;28;20036;-67
2021/03/04 09:43:22;;;;;;;2.58;1.50;;;23.50;44.50;;;;;;5000080;28;20038;-67
2021/03/04 09:45:50;;;;;;;1.77;1.30;;;23.50;44.50;;;;;;5005500;28;20034;-67
2021/03/04 09:48:28;;;;;;;3.20;1.20;;;23.50;44.50;;;;;;5004372;28;20084;-69
2021/03/04 09:50:54;;;;;;;2.03;1.30;;;23.60;44.50;;;;;;5007288;28;20053;-67
2021/03/04 09:53:20;;;;;;;1.63;1.05;;;23.50;44.50;;;;;;5008637;28;20045;-65
2021/03/04 09:55:46;;;;;;;2.25;1.20;;;23.50;44.50;;;;;;5006166;28;20034;-67
2021/03/04 09:58:19;;;;;;;1.60;1.15;;;23.60;44.60;;;;;;5006670;28;20045;-67
2021/03/04 10:00:45;;;;;;;1.95;1.10;;;23.60;44.50;;;;;;5001419;28;20042;-67
2021/03/04 10:03:14;;;;;;;1.33;1.10;;;23.60;44.50;;;;;;5006547;28;20034;-67
2021/03/04 10:05:47;;;;;;;1.40;0.90;;;23.60;44.50;;;;;;4994427;28;20057;-67
2021/03/04 10:08:14;;;;;;;1.30;1.00;;;23.60;44.50;;;;;;5002958;28;20042;-62
2021/03/04 10:10:40;;;;;;;2.97;1.50;;;23.60;44.70;;;;;;5008485;28;20026;-60
2021/03/04 10:13:06;;;;;;;1.50;1.10;;;23.60;44.50;;;;;;5003125;28;20057;-60
2021/03/04 10:15:37;;;;;;;2.03;1.23;;;23.70;44.40;;;;;;5008775;28;20056;-59
2021/03/04 10:18:07;;;;;;;2.22;1.30;;;23.70;44.30;;;;;;5008302;28;20022;-64
2021/03/04 10:20:34;;;;;;;3.70;1.10;;;23.70;44.30;;;;;;5008201;28;20026;-63
2021/03/04 10:22:59;;;;;;;1.65;1.10;;;23.70;44.60;;;;;;4999041;28;20108;-61
2021/03/04 10:25:25;;;;;;;1.45;1.05;;;23.70;44.60;;;;;;5006834;28;20145;-66
2021/03/04 10:27:51;;;;;;;2.20;1.23;;;23.70;44.60;;;;;;5007174;28;20481;-61
2021/03/04 10:30:19;;;;;;;1.90;1.30;;;23.70;44.50;;;;;;5008062;28;20125;-59
2021/03/04 10:32:44;;;;;;;1.48;1.10;;;23.80;44.40;;;;;;5007970;28;20029;-62
2021/03/04 10:35:13;;;;;;;1.80;1.20;;;23.80;44.40;;;;;;5004703;28;20052;-61
2021/03/04 10:37:39;;;;;;;1.83;1.20;;;23.80;44.50;;;;;;5007590;28;20057;-62
2021/03/04 10:40:07;;;;;;;2.20;1.15;;;23.80;44.60;;;;;;5002856;28;20033;-60
2021/03/04 10:42:34;;;;;;;1.42;1.00;;;23.80;44.50;;;;;;5005703;28;20033;-65
2021/03/04 10:45:00;;;;;;;1.90;1.10;;;23.80;44.40;;;;;;5008011;28;20535;-65
2021/03/04 10:47:27;;;;;;;2.00;1.10;;;23.90;44.50;;;;;;5009282;28;20034;-62
2021/03/04 10:49:53;;;;;;;1.35;1.08;;;23.80;44.50;;;;;;5006908;28;20022;-60
2021/03/04 10:52:20;;;;;;;1.40;0.98;;;23.90;44.50;;;;;;5000365;28;20030;-63
2021/03/04 10:54:45;;;;;;;1.70;1.15;;;23.90;44.50;;;;;;5008864;28;20022;-61
2021/03/04 10:57:11;;;;;;;2.05;1.00;;;23.90;44.50;;;;;;5008621;28;20090;-59
2021/03/04 10:59:37;;;;;;;1.60;1.17;;;23.90;44.50;;;;;;5006263;28;20144;-60
2021/03/04 11:02:02;;;;;;;1.77;1.10;;;23.90;44.50;;;;;;5006025;28;20038;-60
2021/03/04 11:04:28;;;;;;;1.60;0.95;;;23.90;44.50;;;;;;4997328;28;20584;-66
2021/03/04 11:06:53;;;;;;;2.00;1.15;;;23.90;44.50;;;;;;5017837;28;20037;-66
2021/03/04 11:09:19;;;;;;;1.30;1.00;;;23.90;44.50;;;;;;5003340;28;20026;-63
2021/03/04 11:11:45;;;;;;;1.35;0.90;;;23.90;44.60;;;;;;4999574;28;20172;-61
2021/03/04 11:14:11;;;;;;;1.90;0.98;;;23.90;44.60;;;;;;5001461;28;20049;-61
2021/03/04 11:16:36;;;;;;;2.45;1.20;;;24.00;44.60;;;;;;4997554;28;20034;-61
2021/03/04 11:19:04;;;;;;;1.60;0.95;;;24.00;44.50;;;;;;5008151;28;20030;-60
2021/03/04 11:21:30;;;;;;;1.33;1.10;;;24.00;44.60;;;;;;5006379;28;20044;-62
2021/03/04 11:23:55;;;;;;;1.40;0.98;;;24.00;44.60;;;;;;5005865;28;20030;-61
2021/03/04 11:26:21;;;;;;;1.45;1.08;;;24.00;44.50;;;;;;4996053;28;20026;-61
2021/03/04 11:28:46;;;;;;;1.23;0.90;;;24.00;44.60;;;;;;5004363;28;20179;-63
2021/03/04 11:31:12;;;;;;;1.45;1.10;;;24.00;44.50;;;;;;5005105;28;20045;-65
2021/03/04 11:33:37;;;;;;;1.90;0.90;;;24.00;44.50;;;;;;5008422;28;20345;-62
2021/03/04 11:36:03;;;;;;;2.88;1.13;;;24.00;44.50;;;;;;5003389;28;20105;-61
2021/03/04 11:38:29;;;;;;;1.90;1.08;;;24.00;44.50;;;;;;5008184;28;20138;-61
2021/03/04 11:40:55;;;;;;;1.40;1.02;;;24.00;44.40;;;;;;5006097;28;20037;-61
2021/03/04 11:43:21;;;;;;;1.58;1.00;;;24.10;44.50;;;;;;5004930;28;20481;-61
2021/03/04 11:45:46;;;;;;;1.70;1.08;;;24.10;44.50;;;;;;5002109;28;20037;-58
2021/03/04 11:48:12;;;;;;;2.20;1.05;;;24.10;44.40;;;;;;5008291;28;20361;-60
2021/03/04 11:50:37;;;;;;;1.90;1.00;;;24.10;44.40;;;;;;5007268;28;20037;-57
2021/03/04 11:53:05;;;;;;;1.58;0.90;;;24.10;44.40;;;;;;5009047;28;20026;-59
2021/03/04 11:55:32;;;;;;;1.98;1.15;;;24.10;44.40;;;;;;5005330;28;20022;-58
2021/03/04 11:57:58;;;;;;;1.50;1.10;;;24.10;44.50;;;;;;5004473;28;20068;-58
2021/03/04 12:00:23;;;;;;;1.15;0.80;;;24.10;44.50;;;;;;5002801;28;20496;-61
2021/03/04 12:02:49;;;;;;;1.67;1.10;;;24.10;45.00;;;;;;5002185;28;20057;-60
2021/03/04 12:05:15;;;;;;;2.47;1.23;;;24.10;44.40;;;;;;5007714;28;20030;-59
2021/03/04 12:07:42;;;;;;;1.40;1.00;;;24.10;44.40;;;;;;4999182;28;20029;-60
2021/03/04 12:10:09;;;;;;;2.83;1.20;;;24.10;44.40;;;;;;5006360;28;20068;-61
2021/03/04 12:12:35;;;;;;;1.85;1.10;;;24.20;44.40;;;;;;4999589;28;20034;-60
2021/03/04 12:15:01;;;;;;;2.10;1.20;;;24.20;44.30;;;;;;5006863;28;20018;-61
2021/03/04 12:17:26;;;;;;;1.42;1.00;;;24.20;44.30;;;;;;5007118;28;20030;-62
2021/03/04 12:19:53;;;;;;;1.40;1.02;;;24.20;44.30;;;;;;4998546;28;20052;-64
2021/03/04 12:22:18;;;;;;;2.35;1.10;;;24.20;44.30;;;;;;5007107;28;20030;-61
2021/03/04 12:24:44;;;;;;;2.00;1.10;;;24.20;44.30;;;;;;5011503;28;20030;-63
2021/03/04 12:27:10;;;;;;;1.27;0.98;;;24.20;44.90;;;;;;5003024;28;20023;-60
2021/03/04 12:29:35;;;;;;;2.30;1.17;;;24.20;44.40;;;;;;5010486;28;20500;-60
2021/03/04 12:32:01;;;;;;;1.63;1.00;;;24.20;44.40;;;;;;5010947;28;20472;-60
2021/03/04 12:34:27;;;;;;;1.73;1.10;;;24.20;44.40;;;;;;5009570;28;20033;-63
2021/03/04 12:36:52;;;;;;;1.63;1.10;;;24.20;44.30;;;;;;5007372;28;20034;-60
2021/03/04 12:39:18;;;;;;;1.63;1.08;;;24.30;44.40;;;;;;5009138;28;20037;-60
2021/03/04 12:41:44;;;;;;;1.58;1.00;;;24.30;44.40;;;;;;5006573;28;20048;-61
2021/03/04 12:44:09;;;;;;;1.75;1.20;;;24.30;44.40;;;;;;5008094;28;20516;-59
2021/03/04 12:46:35;;;;;;;1.77;1.10;;;24.30;44.40;;;;;;5008614;28;20077;-61
2021/03/04 12:49:01;;;;;;;1.65;1.10;;;24.30;44.40;;;;;;4993129;28;20544;-62
2021/03/04 12:51:27;;;;;;;2.20;1.05;;;24.30;44.50;;;;;;5009327;28;20046;-62